sensor_id;sensor_type;location;lat;lon;timestamp;pressure;altitude;pressure_sealevel;temperature;humidity
31331;BME280;34067;39.548;-76.088;2023-02-01T00:01:06;102257.66;;;0.83;69.38
31331;BME280;34067;39.548;-76.088;2023-02-01T00:03:34;102249.75;;;0.97;70.40
31331;BME280;34067;39.548;-76.088;2023-02-01T00:06:04;102249.63;;;0.87;69.05
31331;BME280;34067;39.548;-76.088;2023-02-01T00:08:32;102247.25;;;1.29;69.38
31331;BME280;34067;39.548;-76.088;2023-02-01T00:11:02;102240.80;;;0.69;69.07
31331;BME280;34067;39.548;-76.088;2023-02-01T00:13:33;102230.60;;;2.04;66.82
31331;BME280;34067;39.548;-76.088;2023-02-01T00:16:05;102241.15;;;0.79;68.56
31331;BME280;34067;39.548;-76.088;2023-02-01T00:18:34;102241.65;;;1.60;67.99
31331;BME280;34067;39.548;-76.088;2023-02-01T00:21:03;102270.24;;;1.18;68.03
31331;BME280;34067;39.548;-76.088;2023-02-01T00:23:33;102271.07;;;2.55;66.76
31331;BME280;34067;39.548;-76.088;2023-02-01T00:26:02;102276.67;;;1.36;69.43
31331;BME280;34067;39.548;-76.088;2023-02-01T00:28:31;102283.95;;;1.68;69.41
31331;BME280;34067;39.548;-76.088;2023-02-01T00:31:02;102276.84;;;1.97;70.02
31331;BME280;34067;39.548;-76.088;2023-02-01T00:33:32;102278.45;;;0.85;73.20
31331;BME280;34067;39.548;-76.088;2023-02-01T00:36:02;102285.61;;;0.37;73.33
31331;BME280;34067;39.548;-76.088;2023-02-01T00:38:34;102288.40;;;1.13;77.52
31331;BME280;34067;39.548;-76.088;2023-02-01T00:41:04;102286.61;;;-0.02;81.67
31331;BME280;34067;39.548;-76.088;2023-02-01T00:43:33;102284.26;;;0.60;80.73
31331;BME280;34067;39.548;-76.088;2023-02-01T00:46:01;102280.73;;;0.89;79.81
31331;BME280;34067;39.548;-76.088;2023-02-01T00:48:29;102284.93;;;0.16;80.49
31331;BME280;34067;39.548;-76.088;2023-02-01T00:51:00;102296.69;;;0.10;83.53
31331;BME280;34067;39.548;-76.088;2023-02-01T00:53:28;102303.88;;;-0.37;86.26
31331;BME280;34067;39.548;-76.088;2023-02-01T00:55:57;102310.18;;;-1.10;89.77
31331;BME280;34067;39.548;-76.088;2023-02-01T00:58:26;102311.73;;;-0.96;92.03
31331;BME280;34067;39.548;-76.088;2023-02-01T01:01:02;102319.93;;;-2.00;96.65
31331;BME280;34067;39.548;-76.088;2023-02-01T01:03:31;102324.74;;;-0.52;95.03
31331;BME280;34067;39.548;-76.088;2023-02-01T01:06:02;102336.92;;;-0.77;97.28
31331;BME280;34067;39.548;-76.088;2023-02-01T01:08:31;102332.54;;;-0.44;97.82
31331;BME280;34067;39.548;-76.088;2023-02-01T01:11:05;102346.07;;;-0.62;96.84
31331;BME280;34067;39.548;-76.088;2023-02-01T01:13:34;102360.25;;;-2.05;95.83
31331;BME280;34067;39.548;-76.088;2023-02-01T01:16:05;102357.84;;;-1.39;96.76
31331;BME280;34067;39.548;-76.088;2023-02-01T01:18:34;102351.21;;;-0.45;92.98
31331;BME280;34067;39.548;-76.088;2023-02-01T01:21:05;102347.87;;;0.33;92.57
31331;BME280;34067;39.548;-76.088;2023-02-01T01:23:34;102348.34;;;-1.68;96.75
31331;BME280;34067;39.548;-76.088;2023-02-01T01:26:05;102341.07;;;-0.21;96.91
31331;BME280;34067;39.548;-76.088;2023-02-01T01:28:34;102329.18;;;-0.30;94.50
31331;BME280;34067;39.548;-76.088;2023-02-01T01:31:02;102329.26;;;-1.18;95.30
31331;BME280;34067;39.548;-76.088;2023-02-01T01:33:30;102329.03;;;-0.42;91.99
31331;BME280;34067;39.548;-76.088;2023-02-01T01:35:58;102318.92;;;-1.16;95.17
31331;BME280;34067;39.548;-76.088;2023-02-01T01:38:26;102332.46;;;-0.10;87.43
31331;BME280;34067;39.548;-76.088;2023-02-01T01:40:55;102323.51;;;-0.38;87.10
31331;BME280;34067;39.548;-76.088;2023-02-01T01:43:23;102319.12;;;-0.14;85.87
31331;BME280;34067;39.548;-76.088;2023-02-01T01:45:51;102305.28;;;0.77;82.83
31331;BME280;34067;39.548;-76.088;2023-02-01T01:48:25;102297.96;;;0.04;82.78
31331;BME280;34067;39.548;-76.088;2023-02-01T01:50:57;102301.51;;;0.18;83.10
31331;BME280;34067;39.548;-76.088;2023-02-01T01:53:30;102318.74;;;-0.38;84.61
31331;BME280;34067;39.548;-76.088;2023-02-01T01:55:59;102319.75;;;0.53;82.29
31331;BME280;34067;39.548;-76.088;2023-02-01T01:58:30;102316.18;;;0.21;80.90
31331;BME280;34067;39.548;-76.088;2023-02-01T02:01:01;102306.91;;;0.23;79.33
31331;BME280;34067;39.548;-76.088;2023-02-01T02:03:34;102301.91;;;0.15;80.52
31331;BME280;34067;39.548;-76.088;2023-02-01T02:06:07;102310.43;;;0.04;81.90
31331;BME280;34067;39.548;-76.088;2023-02-01T02:08:38;102326.71;;;0.71;77.41
31331;BME280;34067;39.548;-76.088;2023-02-01T02:11:06;102320.48;;;-1.51;82.14
31331;BME280;34067;39.548;-76.088;2023-02-01T02:13:36;102313.84;;;-0.68;80.44
31331;BME280;34067;39.548;-76.088;2023-02-01T02:16:21;102322.43;;;-0.31;78.91
31331;BME280;34067;39.548;-76.088;2023-02-01T02:19:17;102305.47;;;0.11;78.11
31331;BME280;34067;39.548;-76.088;2023-02-01T02:21:59;102306.79;;;-0.49;79.00
31331;BME280;34067;39.548;-76.088;2023-02-01T02:24:56;102300.00;;;1.07;73.71
31331;BME280;34067;39.548;-76.088;2023-02-01T02:27:39;102301.11;;;0.54;71.53
31331;BME280;34067;39.548;-76.088;2023-02-01T02:30:30;102301.77;;;1.78;68.02
31331;BME280;34067;39.548;-76.088;2023-02-01T02:34:14;102303.11;;;1.35;67.99
31331;BME280;34067;39.548;-76.088;2023-02-01T02:36:55;102296.95;;;2.03;66.60
31331;BME280;34067;39.548;-76.088;2023-02-01T02:39:36;102298.06;;;2.27;66.83
31331;BME280;34067;39.548;-76.088;2023-02-01T02:42:12;102297.06;;;1.58;66.49
31331;BME280;34067;39.548;-76.088;2023-02-01T02:44:47;102297.65;;;2.73;66.94
31331;BME280;34067;39.548;-76.088;2023-02-01T02:47:22;102294.36;;;1.54;67.31
31331;BME280;34067;39.548;-76.088;2023-02-01T02:49:58;102302.39;;;1.32;68.71
31331;BME280;34067;39.548;-76.088;2023-02-01T02:52:28;102314.70;;;0.29;72.99
31331;BME280;34067;39.548;-76.088;2023-02-01T02:54:57;102316.54;;;0.63;71.74
31331;BME280;34067;39.548;-76.088;2023-02-01T02:57:29;102304.95;;;1.50;71.21
31331;BME280;34067;39.548;-76.088;2023-02-01T03:00:03;102307.38;;;1.86;71.05
31331;BME280;34067;39.548;-76.088;2023-02-01T03:02:33;102312.37;;;1.39;71.16
31331;BME280;34067;39.548;-76.088;2023-02-01T03:05:02;102298.23;;;1.09;70.81
31331;BME280;34067;39.548;-76.088;2023-02-01T03:08:08;102296.50;;;1.88;69.98
31331;BME280;34067;39.548;-76.088;2023-02-01T03:10:48;102290.41;;;1.33;70.28
31331;BME280;34067;39.548;-76.088;2023-02-01T03:13:26;102285.74;;;1.48;70.76
31331;BME280;34067;39.548;-76.088;2023-02-01T03:16:01;102287.80;;;1.25;69.89
31331;BME280;34067;39.548;-76.088;2023-02-01T03:18:36;102284.10;;;1.14;69.60
31331;BME280;34067;39.548;-76.088;2023-02-01T03:21:10;102274.46;;;1.62;70.53
31331;BME280;34067;39.548;-76.088;2023-02-01T03:23:43;102266.30;;;1.30;70.95
31331;BME280;34067;39.548;-76.088;2023-02-01T03:26:14;102270.30;;;1.85;69.67
31331;BME280;34067;39.548;-76.088;2023-02-01T03:28:51;102275.62;;;2.12;70.52
31331;BME280;34067;39.548;-76.088;2023-02-01T03:31:20;102277.05;;;2.16;68.39
31331;BME280;34067;39.548;-76.088;2023-02-01T03:33:48;102283.89;;;1.78;67.03
31331;BME280;34067;39.548;-76.088;2023-02-01T03:36:24;102283.94;;;2.20;66.83
31331;BME280;34067;39.548;-76.088;2023-02-01T03:39:00;102278.85;;;2.52;65.29
31331;BME280;34067;39.548;-76.088;2023-02-01T03:41:37;102287.08;;;2.07;65.64
31331;BME280;34067;39.548;-76.088;2023-02-01T03:44:13;102292.36;;;2.38;66.10
31331;BME280;34067;39.548;-76.088;2023-02-01T03:46:48;102290.11;;;0.22;69.95
31331;BME280;34067;39.548;-76.088;2023-02-01T03:49:22;102303.28;;;1.16;70.91
31331;BME280;34067;39.548;-76.088;2023-02-01T03:51:55;102310.21;;;0.23;72.87
31331;BME280;34067;39.548;-76.088;2023-02-01T03:54:25;102308.79;;;-0.94;75.93
31331;BME280;34067;39.548;-76.088;2023-02-01T03:56:56;102309.06;;;-0.73;76.95
31331;BME280;34067;39.548;-76.088;2023-02-01T03:59:26;102296.75;;;0.11;74.47
31331;BME280;34067;39.548;-76.088;2023-02-01T04:01:54;102296.13;;;0.10;75.23
31331;BME280;34067;39.548;-76.088;2023-02-01T04:04:22;102283.98;;;0.66;75.71
31331;BME280;34067;39.548;-76.088;2023-02-01T04:06:51;102281.68;;;-0.55;75.68
31331;BME280;34067;39.548;-76.088;2023-02-01T04:09:19;102292.15;;;-0.17;76.18
31331;BME280;34067;39.548;-76.088;2023-02-01T04:11:48;102281.56;;;0.42;73.34
31331;BME280;34067;39.548;-76.088;2023-02-01T04:14:16;102271.50;;;1.17;72.97
31331;BME280;34067;39.548;-76.088;2023-02-01T04:16:45;102262.12;;;1.44;71.31
31331;BME280;34067;39.548;-76.088;2023-02-01T04:19:13;102253.19;;;1.27;70.63
31331;BME280;34067;39.548;-76.088;2023-02-01T04:21:42;102238.28;;;2.20;68.64
31331;BME280;34067;39.548;-76.088;2023-02-01T04:24:11;102236.36;;;1.20;68.74
31331;BME280;34067;39.548;-76.088;2023-02-01T04:26:39;102238.37;;;1.31;67.12
31331;BME280;34067;39.548;-76.088;2023-02-01T04:29:08;102228.12;;;1.60;66.40
31331;BME280;34067;39.548;-76.088;2023-02-01T04:31:36;102228.92;;;1.70;65.16
31331;BME280;34067;39.548;-76.088;2023-02-01T04:34:04;102230.38;;;0.12;68.38
31331;BME280;34067;39.548;-76.088;2023-02-01T04:36:32;102225.77;;;1.66;66.91
31331;BME280;34067;39.548;-76.088;2023-02-01T04:39:00;102216.28;;;0.64;68.05
31331;BME280;34067;39.548;-76.088;2023-02-01T04:41:28;102209.46;;;0.22;69.03
31331;BME280;34067;39.548;-76.088;2023-02-01T04:43:56;102186.11;;;0.76;67.24
31331;BME280;34067;39.548;-76.088;2023-02-01T04:46:25;102193.30;;;0.62;67.45
31331;BME280;34067;39.548;-76.088;2023-02-01T04:48:53;102189.50;;;0.98;69.33
31331;BME280;34067;39.548;-76.088;2023-02-01T04:51:21;102188.02;;;0.78;67.48
31331;BME280;34067;39.548;-76.088;2023-02-01T04:53:49;102191.89;;;1.73;67.17
31331;BME280;34067;39.548;-76.088;2023-02-01T04:56:17;102174.50;;;1.70;66.10
31331;BME280;34067;39.548;-76.088;2023-02-01T04:58:45;102168.15;;;1.90;66.84
31331;BME280;34067;39.548;-76.088;2023-02-01T05:01:12;102156.89;;;1.82;65.12
31331;BME280;34067;39.548;-76.088;2023-02-01T05:03:41;102168.77;;;1.47;63.88
31331;BME280;34067;39.548;-76.088;2023-02-01T05:06:09;102180.06;;;1.12;65.95
31331;BME280;34067;39.548;-76.088;2023-02-01T05:08:37;102185.97;;;0.48;69.80
31331;BME280;34067;39.548;-76.088;2023-02-01T05:11:05;102180.34;;;0.66;70.81
31331;BME280;34067;39.548;-76.088;2023-02-01T05:13:34;102190.29;;;1.12;69.49
31331;BME280;34067;39.548;-76.088;2023-02-01T05:16:03;102187.82;;;1.21;69.42
31331;BME280;34067;39.548;-76.088;2023-02-01T05:18:32;102192.34;;;1.34;68.44
31331;BME280;34067;39.548;-76.088;2023-02-01T05:21:00;102201.42;;;1.49;67.84
31331;BME280;34067;39.548;-76.088;2023-02-01T05:23:28;102214.58;;;-0.13;71.06
31331;BME280;34067;39.548;-76.088;2023-02-01T05:26:00;102209.70;;;0.48;68.79
31331;BME280;34067;39.548;-76.088;2023-02-01T05:28:28;102197.55;;;1.15;69.64
31331;BME280;34067;39.548;-76.088;2023-02-01T05:30:57;102185.92;;;0.96;69.03
31331;BME280;34067;39.548;-76.088;2023-02-01T05:33:25;102175.39;;;1.15;68.96
31331;BME280;34067;39.548;-76.088;2023-02-01T05:35:53;102178.57;;;0.82;69.08
31331;BME280;34067;39.548;-76.088;2023-02-01T05:38:21;102183.71;;;0.80;69.14
31331;BME280;34067;39.548;-76.088;2023-02-01T05:40:49;102185.88;;;1.05;69.46
31331;BME280;34067;39.548;-76.088;2023-02-01T05:43:17;102190.19;;;1.38;68.87
31331;BME280;34067;39.548;-76.088;2023-02-01T05:45:45;102167.82;;;0.88;69.98
31331;BME280;34067;39.548;-76.088;2023-02-01T05:48:14;102169.73;;;-0.69;71.86
31331;BME280;34067;39.548;-76.088;2023-02-01T05:50:43;102201.54;;;0.23;71.08
31331;BME280;34067;39.548;-76.088;2023-02-01T05:53:11;102194.96;;;-0.01;73.19
31331;BME280;34067;39.548;-76.088;2023-02-01T05:55:39;102187.62;;;1.01;71.43
31331;BME280;34067;39.548;-76.088;2023-02-01T05:58:07;102197.36;;;0.09;75.23
31331;BME280;34067;39.548;-76.088;2023-02-01T06:03:14;102176.60;;;-0.75;74.42
31331;BME280;34067;39.548;-76.088;2023-02-01T06:05:44;102188.11;;;1.12;72.27
31331;BME280;34067;39.548;-76.088;2023-02-01T06:08:13;102202.34;;;0.36;71.78
31331;BME280;34067;39.548;-76.088;2023-02-01T06:10:42;102202.41;;;1.00;70.43
31331;BME280;34067;39.548;-76.088;2023-02-01T06:13:10;102186.48;;;1.75;69.23
31331;BME280;34067;39.548;-76.088;2023-02-01T06:15:38;102188.78;;;1.50;69.57
31331;BME280;34067;39.548;-76.088;2023-02-01T06:18:06;102187.46;;;1.10;70.29
31331;BME280;34067;39.548;-76.088;2023-02-01T06:20:34;102191.12;;;0.79;71.21
31331;BME280;34067;39.548;-76.088;2023-02-01T06:23:02;102185.51;;;0.24;72.66
31331;BME280;34067;39.548;-76.088;2023-02-01T06:25:30;102202.42;;;0.14;73.38
31331;BME280;34067;39.548;-76.088;2023-02-01T06:28:01;102206.39;;;-1.68;76.60
31331;BME280;34067;39.548;-76.088;2023-02-01T06:30:29;102219.48;;;0.39;77.84
31331;BME280;34067;39.548;-76.088;2023-02-01T06:32:57;102234.00;;;-0.45;77.81
31331;BME280;34067;39.548;-76.088;2023-02-01T06:35:25;102240.07;;;-0.16;77.14
31331;BME280;34067;39.548;-76.088;2023-02-01T06:37:52;102257.72;;;-0.76;78.46
31331;BME280;34067;39.548;-76.088;2023-02-01T06:40:51;102276.45;;;-0.79;81.08
31331;BME280;34067;39.548;-76.088;2023-02-01T06:43:19;102258.82;;;-1.02;80.98
31331;BME280;34067;39.548;-76.088;2023-02-01T06:45:48;102246.09;;;-0.15;78.35
31331;BME280;34067;39.548;-76.088;2023-02-01T06:48:16;102216.98;;;0.21;76.32
31331;BME280;34067;39.548;-76.088;2023-02-01T06:50:44;102195.13;;;-0.06;78.45
31331;BME280;34067;39.548;-76.088;2023-02-01T06:53:12;102203.28;;;-0.83;81.73
31331;BME280;34067;39.548;-76.088;2023-02-01T06:55:40;102201.01;;;-1.35;82.85
31331;BME280;34067;39.548;-76.088;2023-02-01T06:58:08;102205.04;;;-0.00;83.39
31331;BME280;34067;39.548;-76.088;2023-02-01T07:00:36;102210.00;;;-1.03;82.55
31331;BME280;34067;39.548;-76.088;2023-02-01T07:03:04;102205.99;;;0.03;81.51
31331;BME280;34067;39.548;-76.088;2023-02-01T07:05:32;102220.35;;;-1.06;84.77
31331;BME280;34067;39.548;-76.088;2023-02-01T07:08:00;102225.45;;;-0.70;85.68
31331;BME280;34067;39.548;-76.088;2023-02-01T07:10:28;102218.67;;;-0.50;84.32
31331;BME280;34067;39.548;-76.088;2023-02-01T07:12:57;102215.65;;;0.10;83.31
31331;BME280;34067;39.548;-76.088;2023-02-01T07:15:25;102214.84;;;-0.25;82.60
31331;BME280;34067;39.548;-76.088;2023-02-01T07:17:55;102213.54;;;-0.37;83.65
31331;BME280;34067;39.548;-76.088;2023-02-01T07:20:23;102202.82;;;-0.61;85.11
31331;BME280;34067;39.548;-76.088;2023-02-01T07:22:55;102189.59;;;0.02;86.17
31331;BME280;34067;39.548;-76.088;2023-02-01T07:25:23;102165.53;;;-1.14;90.36
31331;BME280;34067;39.548;-76.088;2023-02-01T07:27:51;102150.22;;;-2.82;99.64
31331;BME280;34067;39.548;-76.088;2023-02-01T07:30:19;102141.58;;;-1.40;94.52
31331;BME280;34067;39.548;-76.088;2023-02-01T07:32:48;102159.74;;;-0.87;94.33
31331;BME280;34067;39.548;-76.088;2023-02-01T07:35:16;102162.04;;;-1.56;93.18
31331;BME280;34067;39.548;-76.088;2023-02-01T07:37:45;102167.10;;;-0.70;88.93
31331;BME280;34067;39.548;-76.088;2023-02-01T07:40:13;102163.52;;;-2.58;94.21
31331;BME280;34067;39.548;-76.088;2023-02-01T07:42:41;102176.71;;;-1.14;89.52
31331;BME280;34067;39.548;-76.088;2023-02-01T07:45:09;102179.01;;;-0.72;86.74
31331;BME280;34067;39.548;-76.088;2023-02-01T07:47:38;102183.32;;;-0.22;86.80
31331;BME280;34067;39.548;-76.088;2023-02-01T07:50:06;102212.43;;;-0.49;84.91
31331;BME280;34067;39.548;-76.088;2023-02-01T07:52:35;102210.24;;;-0.65;86.03
31331;BME280;34067;39.548;-76.088;2023-02-01T07:55:03;102204.33;;;-1.10;86.67
31331;BME280;34067;39.548;-76.088;2023-02-01T07:57:32;102222.28;;;-0.83;83.75
31331;BME280;34067;39.548;-76.088;2023-02-01T08:00:00;102213.36;;;-0.26;80.78
31331;BME280;34067;39.548;-76.088;2023-02-01T08:02:28;102212.43;;;-0.57;82.21
31331;BME280;34067;39.548;-76.088;2023-02-01T08:04:57;102194.53;;;0.81;78.52
31331;BME280;34067;39.548;-76.088;2023-02-01T08:07:25;102183.96;;;0.76;76.78
31331;BME280;34067;39.548;-76.088;2023-02-01T08:09:52;102173.57;;;1.41;74.25
31331;BME280;34067;39.548;-76.088;2023-02-01T08:12:21;102165.88;;;1.29;73.73
31331;BME280;34067;39.548;-76.088;2023-02-01T08:14:48;102188.89;;;1.33;71.73
31331;BME280;34067;39.548;-76.088;2023-02-01T08:17:16;102174.76;;;1.60;71.02
31331;BME280;34067;39.548;-76.088;2023-02-01T08:19:44;102165.59;;;1.63;72.68
31331;BME280;34067;39.548;-76.088;2023-02-01T08:22:12;102187.82;;;1.36;73.90
31331;BME280;34067;39.548;-76.088;2023-02-01T08:24:41;102182.98;;;-0.28;77.45
31331;BME280;34067;39.548;-76.088;2023-02-01T08:27:09;102189.73;;;-0.69;82.88
31331;BME280;34067;39.548;-76.088;2023-02-01T08:29:37;102180.70;;;1.04;78.02
31331;BME280;34067;39.548;-76.088;2023-02-01T08:32:05;102160.78;;;1.12;75.52
31331;BME280;34067;39.548;-76.088;2023-02-01T08:34:33;102170.47;;;1.51;73.84
31331;BME280;34067;39.548;-76.088;2023-02-01T08:37:01;102178.18;;;2.14;72.32
31331;BME280;34067;39.548;-76.088;2023-02-01T08:39:30;102170.64;;;1.74;71.08
31331;BME280;34067;39.548;-76.088;2023-02-01T08:41:58;102170.80;;;2.00;69.97
31331;BME280;34067;39.548;-76.088;2023-02-01T08:44:25;102170.37;;;1.91;69.31
31331;BME280;34067;39.548;-76.088;2023-02-01T08:46:54;102162.13;;;2.06;68.78
31331;BME280;34067;39.548;-76.088;2023-02-01T08:49:21;102173.79;;;2.36;68.73
31331;BME280;34067;39.548;-76.088;2023-02-01T08:51:50;102184.90;;;2.07;68.66
31331;BME280;34067;39.548;-76.088;2023-02-01T08:54:17;102194.29;;;2.55;67.68
31331;BME280;34067;39.548;-76.088;2023-02-01T08:56:45;102195.78;;;2.33;67.75
31331;BME280;34067;39.548;-76.088;2023-02-01T08:59:12;102191.17;;;2.50;67.56
31331;BME280;34067;39.548;-76.088;2023-02-01T09:01:40;102181.93;;;1.72;67.98
31331;BME280;34067;39.548;-76.088;2023-02-01T09:04:08;102202.62;;;2.03;67.95
31331;BME280;34067;39.548;-76.088;2023-02-01T09:06:36;102227.33;;;1.94;68.29
31331;BME280;34067;39.548;-76.088;2023-02-01T09:09:08;102240.63;;;1.25;69.18
31331;BME280;34067;39.548;-76.088;2023-02-01T09:11:36;102242.99;;;1.34;70.53
31331;BME280;34067;39.548;-76.088;2023-02-01T09:14:04;102238.09;;;1.29;69.53
31331;BME280;34067;39.548;-76.088;2023-02-01T09:16:32;102233.85;;;1.16;70.05
31331;BME280;34067;39.548;-76.088;2023-02-01T09:19:00;102212.27;;;1.09;70.04
31331;BME280;34067;39.548;-76.088;2023-02-01T09:21:28;102223.03;;;1.34;70.48
31331;BME280;34067;39.548;-76.088;2023-02-01T09:23:56;102225.09;;;1.44;70.20
31331;BME280;34067;39.548;-76.088;2023-02-01T09:26:24;102234.92;;;1.87;69.53
31331;BME280;34067;39.548;-76.088;2023-02-01T09:28:52;102231.51;;;1.78;69.15
31331;BME280;34067;39.548;-76.088;2023-02-01T09:31:20;102246.28;;;1.40;67.62
31331;BME280;34067;39.548;-76.088;2023-02-01T09:33:49;102243.13;;;1.99;67.76
31331;BME280;34067;39.548;-76.088;2023-02-01T09:36:16;102255.11;;;-1.60;69.05
31331;BME280;34067;39.548;-76.088;2023-02-01T09:38:44;102258.91;;;0.41;70.38
31331;BME280;34067;39.548;-76.088;2023-02-01T09:41:27;102259.55;;;0.41;70.90
31331;BME280;34067;39.548;-76.088;2023-02-01T09:44:06;102255.37;;;-1.25;74.00
31331;BME280;34067;39.548;-76.088;2023-02-01T09:46:36;102253.08;;;1.40;71.49
31331;BME280;34067;39.548;-76.088;2023-02-01T09:49:09;102248.88;;;1.14;71.57
31331;BME280;34067;39.548;-76.088;2023-02-01T09:51:56;102246.42;;;-0.98;71.96
31331;BME280;34067;39.548;-76.088;2023-02-01T09:54:26;102264.85;;;0.76;72.51
31331;BME280;34067;39.548;-76.088;2023-02-01T09:56:58;102260.54;;;-0.86;76.80
31331;BME280;34067;39.548;-76.088;2023-02-01T09:59:35;102252.55;;;-0.05;74.37
31331;BME280;34067;39.548;-76.088;2023-02-01T10:02:13;102257.59;;;-0.79;75.06
31331;BME280;34067;39.548;-76.088;2023-02-01T10:04:41;102262.21;;;0.73;71.22
31331;BME280;34067;39.548;-76.088;2023-02-01T10:07:19;102254.59;;;0.88;71.58
31331;BME280;34067;39.548;-76.088;2023-02-01T10:09:59;102255.52;;;-0.54;72.66
31331;BME280;34067;39.548;-76.088;2023-02-01T10:13:10;102263.87;;;0.23;71.85
31331;BME280;34067;39.548;-76.088;2023-02-01T10:15:53;102278.12;;;0.02;71.51
31331;BME280;34067;39.548;-76.088;2023-02-01T10:19:08;102274.98;;;0.66;69.70
31331;BME280;34067;39.548;-76.088;2023-02-01T10:21:52;102259.46;;;0.42;70.25
31331;BME280;34067;39.548;-76.088;2023-02-01T10:24:36;102260.10;;;0.97;68.84
31331;BME280;34067;39.548;-76.088;2023-02-01T10:27:13;102245.74;;;0.81;67.74
31331;BME280;34067;39.548;-76.088;2023-02-01T10:29:43;102238.54;;;1.08;68.23
31331;BME280;34067;39.548;-76.088;2023-02-01T10:32:15;102227.68;;;0.74;67.71
31331;BME280;34067;39.548;-76.088;2023-02-01T10:34:46;102221.78;;;1.13;67.55
31331;BME280;34067;39.548;-76.088;2023-02-01T10:37:25;102232.28;;;-0.17;68.63
31331;BME280;34067;39.548;-76.088;2023-02-01T10:39:55;102232.15;;;0.55;67.04
31331;BME280;34067;39.548;-76.088;2023-02-01T10:42:27;102243.52;;;1.34;66.05
31331;BME280;34067;39.548;-76.088;2023-02-01T10:44:57;102244.05;;;1.25;66.26
31331;BME280;34067;39.548;-76.088;2023-02-01T10:47:26;102227.72;;;1.37;65.97
31331;BME280;34067;39.548;-76.088;2023-02-01T10:50:02;102234.42;;;0.97;65.53
31331;BME280;34067;39.548;-76.088;2023-02-01T10:52:38;102230.25;;;1.05;66.24
31331;BME280;34067;39.548;-76.088;2023-02-01T10:55:47;102209.73;;;1.26;65.84
31331;BME280;34067;39.548;-76.088;2023-02-01T10:58:17;102219.35;;;1.72;65.90
31331;BME280;34067;39.548;-76.088;2023-02-01T11:00:49;102232.18;;;0.54;66.58
31331;BME280;34067;39.548;-76.088;2023-02-01T11:03:32;102241.08;;;1.35;63.45
31331;BME280;34067;39.548;-76.088;2023-02-01T11:06:01;102239.68;;;0.71;65.30
31331;BME280;34067;39.548;-76.088;2023-02-01T11:08:30;102232.80;;;1.40;64.52
31331;BME280;34067;39.548;-76.088;2023-02-01T11:11:01;102233.51;;;0.23;65.13
31331;BME280;34067;39.548;-76.088;2023-02-01T11:13:32;102252.04;;;-0.12;66.57
31331;BME280;34067;39.548;-76.088;2023-02-01T11:16:03;102271.67;;;-0.28;66.52
31331;BME280;34067;39.548;-76.088;2023-02-01T11:18:35;102284.25;;;-1.07;67.57
31331;BME280;34067;39.548;-76.088;2023-02-01T11:21:05;102294.82;;;-0.56;69.84
31331;BME280;34067;39.548;-76.088;2023-02-01T11:23:35;102292.01;;;-1.90;69.29
31331;BME280;34067;39.548;-76.088;2023-02-01T11:26:12;102317.33;;;-1.75;69.78
31331;BME280;34067;39.548;-76.088;2023-02-01T11:28:46;102298.83;;;-1.39;66.69
31331;BME280;34067;39.548;-76.088;2023-02-01T11:31:18;102300.87;;;-2.30;66.55
31331;BME280;34067;39.548;-76.088;2023-02-01T11:33:51;102286.62;;;-3.49;71.83
31331;BME280;34067;39.548;-76.088;2023-02-01T11:36:23;102285.64;;;-2.86;68.43
31331;BME280;34067;39.548;-76.088;2023-02-01T11:38:54;102289.58;;;-3.46;70.43
31331;BME280;34067;39.548;-76.088;2023-02-01T11:41:41;102285.31;;;-2.85;66.64
31331;BME280;34067;39.548;-76.088;2023-02-01T11:44:21;102272.74;;;-2.84;68.80
31331;BME280;34067;39.548;-76.088;2023-02-01T11:46:50;102303.98;;;-3.18;70.13
31331;BME280;34067;39.548;-76.088;2023-02-01T11:49:23;102323.44;;;-3.53;69.54
31331;BME280;34067;39.548;-76.088;2023-02-01T11:52:03;102343.35;;;-3.57;70.89
31331;BME280;34067;39.548;-76.088;2023-02-01T11:54:56;102338.25;;;-2.71;65.41
31331;BME280;34067;39.548;-76.088;2023-02-01T11:57:39;102331.02;;;-3.83;69.01
31331;BME280;34067;39.548;-76.088;2023-02-01T12:00:42;102330.25;;;-3.91;70.68
31331;BME280;34067;39.548;-76.088;2023-02-01T12:05:58;102328.18;;;-3.36;72.65
31331;BME280;34067;39.548;-76.088;2023-02-01T12:10:06;102356.27;;;-2.93;66.32
31331;BME280;34067;39.548;-76.088;2023-02-01T12:12:47;102366.85;;;-3.20;68.45
31331;BME280;34067;39.548;-76.088;2023-02-01T12:15:31;102380.45;;;-3.40;70.39
31331;BME280;34067;39.548;-76.088;2023-02-01T12:18:31;102369.02;;;-4.19;68.55
31331;BME280;34067;39.548;-76.088;2023-02-01T12:21:12;102382.43;;;-3.18;68.73
31331;BME280;34067;39.548;-76.088;2023-02-01T12:24:03;102362.69;;;-3.81;70.07
31331;BME280;34067;39.548;-76.088;2023-02-01T12:26:46;102385.79;;;-4.38;74.08
31331;BME280;34067;39.548;-76.088;2023-02-01T12:29:28;102384.94;;;-4.03;67.44
31331;BME280;34067;39.548;-76.088;2023-02-01T12:32:08;102365.60;;;-3.60;68.53
31331;BME280;34067;39.548;-76.088;2023-02-01T12:34:53;102376.79;;;-4.11;70.19
31331;BME280;34067;39.548;-76.088;2023-02-01T12:37:37;102384.16;;;-4.78;66.28
31331;BME280;34067;39.548;-76.088;2023-02-01T12:40:18;102393.87;;;-4.61;66.20
31331;BME280;34067;39.548;-76.088;2023-02-01T12:43:06;102411.14;;;-3.78;64.15
31331;BME280;34067;39.548;-76.088;2023-02-01T12:45:41;102426.24;;;-3.56;64.96
31331;BME280;34067;39.548;-76.088;2023-02-01T12:48:28;102437.65;;;-4.54;68.86
31331;BME280;34067;39.548;-76.088;2023-02-01T12:51:02;102447.53;;;-4.17;62.65
31331;BME280;34067;39.548;-76.088;2023-02-01T12:53:45;102458.26;;;-3.59;63.25
31331;BME280;34067;39.548;-76.088;2023-02-01T12:56:21;102445.77;;;-3.48;59.99
31331;BME280;34067;39.548;-76.088;2023-02-01T12:58:51;102456.13;;;-4.35;62.18
31331;BME280;34067;39.548;-76.088;2023-02-01T13:01:25;102455.33;;;-3.86;64.90
31331;BME280;34067;39.548;-76.088;2023-02-01T13:04:00;102451.38;;;-5.06;67.85
31331;BME280;34067;39.548;-76.088;2023-02-01T13:06:32;102453.26;;;-3.91;60.73
31331;BME280;34067;39.548;-76.088;2023-02-01T13:09:09;102438.78;;;-2.85;60.08